sensor_id;sensor_type;location;lat;lon;timestamp;P1;durP1;ratioP1;P2;durP2;ratioP2
68089;SDS011;54880;50.986;6.990;2022-11-15T00:00:58;16.30;;;6.60;;
68089;SDS011;54880;50.986;6.990;2022-11-15T00:03:42;14.27;;;6.72;;
68089;SDS011;54880;50.986;6.990;2022-11-15T00:06:26;11.75;;;6.43;;
68089;SDS011;54880;50.986;6.990;2022-11-15T00:09:10;12.63;;;6.50;;
68089;SDS011;54880;50.986;6.990;2022-11-15T00:11:54;12.88;;;6.60;;
68089;SDS011;54880;50.986;6.990;2022-11-15T00:14:38;13.85;;;6.85;;
68089;SDS011;54880;50.986;6.990;2022-11-15T00:17:22;13.05;;;6.55;;
68089;SDS011;54880;50.986;6.990;2022-11-15T00:20:06;14.82;;;6.72;;
68089;SDS011;54880;50.986;6.990;2022-11-15T00:22:50;12.30;;;6.60;;
68089;SDS011;54880;50.986;6.990;2022-11-15T00:25:34;15.05;;;6.57;;
68089;SDS011;54880;50.986;6.990;2022-11-15T00:28:18;13.75;;;7.32;;
68089;SDS011;54880;50.986;6.990;2022-11-15T00:31:03;11.77;;;6.30;;
68089;SDS011;54880;50.986;6.990;2022-11-15T00:33:47;14.45;;;6.95;;
68089;SDS011;54880;50.986;6.990;2022-11-15T00:36:34;12.97;;;7.60;;
68089;SDS011;54880;50.986;6.990;2022-11-15T00:39:18;12.73;;;6.55;;
68089;SDS011;54880;50.986;6.990;2022-11-15T00:42:02;13.55;;;6.28;;
68089;SDS011;54880;50.986;6.990;2022-11-15T00:44:46;15.20;;;6.65;;
68089;SDS011;54880;50.986;6.990;2022-11-15T00:47:30;14.23;;;7.00;;
68089;SDS011;54880;50.986;6.990;2022-11-15T00:50:14;19.03;;;7.20;;
68089;SDS011;54880;50.986;6.990;2022-11-15T00:52:59;13.10;;;6.82;;
68089;SDS011;54880;50.986;6.990;2022-11-15T00:55:43;14.82;;;7.03;;
68089;SDS011;54880;50.986;6.990;2022-11-15T00:58:27;12.05;;;7.05;;
68089;SDS011;54880;50.986;6.990;2022-11-15T01:01:12;12.40;;;7.00;;
68089;SDS011;54880;50.986;6.990;2022-11-15T01:03:56;13.80;;;7.40;;
68089;SDS011;54880;50.986;6.990;2022-11-15T01:06:40;14.85;;;7.03;;
68089;SDS011;54880;50.986;6.990;2022-11-15T01:09:23;14.18;;;6.45;;
68089;SDS011;54880;50.986;6.990;2022-11-15T01:12:07;19.83;;;7.45;;
68089;SDS011;54880;50.986;6.990;2022-11-15T01:14:51;14.48;;;6.65;;
68089;SDS011;54880;50.986;6.990;2022-11-15T01:17:35;15.60;;;6.83;;
68089;SDS011;54880;50.986;6.990;2022-11-15T01:20:19;12.90;;;6.38;;
68089;SDS011;54880;50.986;6.990;2022-11-15T01:23:03;14.18;;;6.70;;
68089;SDS011;54880;50.986;6.990;2022-11-15T01:25:47;13.45;;;6.90;;
68089;SDS011;54880;50.986;6.990;2022-11-15T01:28:32;16.40;;;6.95;;
68089;SDS011;54880;50.986;6.990;2022-11-15T01:31:17;15.93;;;7.33;;
68089;SDS011;54880;50.986;6.990;2022-11-15T01:34:01;12.10;;;6.57;;
68089;SDS011;54880;50.986;6.990;2022-11-15T01:36:45;13.90;;;6.70;;
68089;SDS011;54880;50.986;6.990;2022-11-15T01:39:29;15.30;;;6.35;;
68089;SDS011;54880;50.986;6.990;2022-11-15T01:42:13;16.27;;;6.75;;
68089;SDS011;54880;50.986;6.990;2022-11-15T01:44:57;15.27;;;6.97;;
68089;SDS011;54880;50.986;6.990;2022-11-15T01:47:42;14.65;;;7.18;;
68089;SDS011;54880;50.986;6.990;2022-11-15T01:50:29;13.23;;;6.60;;
68089;SDS011;54880;50.986;6.990;2022-11-15T01:53:14;14.73;;;6.93;;
68089;SDS011;54880;50.986;6.990;2022-11-15T01:55:58;13.30;;;6.95;;
68089;SDS011;54880;50.986;6.990;2022-11-15T01:58:42;13.23;;;7.17;;
68089;SDS011;54880;50.986;6.990;2022-11-15T02:01:26;12.18;;;6.30;;
68089;SDS011;54880;50.986;6.990;2022-11-15T02:06:56;19.38;;;7.25;;
68089;SDS011;54880;50.986;6.990;2022-11-15T02:09:40;14.95;;;7.80;;
68089;SDS011;54880;50.986;6.990;2022-11-15T02:12:24;13.63;;;6.60;;
68089;SDS011;54880;50.986;6.990;2022-11-15T02:15:08;13.23;;;7.20;;
68089;SDS011;54880;50.986;6.990;2022-11-15T02:18:03;14.50;;;6.97;;
68089;SDS011;54880;50.986;6.990;2022-11-15T02:26:48;13.00;;;6.67;;
68089;SDS011;54880;50.986;6.990;2022-11-15T02:38:25;14.02;;;6.88;;
68089;SDS011;54880;50.986;6.990;2022-11-15T02:41:02;15.17;;;7.20;;
68089;SDS011;54880;50.986;6.990;2022-11-15T02:46:51;12.73;;;7.60;;
68089;SDS011;54880;50.986;6.990;2022-11-15T02:49:57;12.90;;;6.72;;
68089;SDS011;54880;50.986;6.990;2022-11-15T02:52:44;16.90;;;6.50;;
68089;SDS011;54880;50.986;6.990;2022-11-15T03:01:21;15.68;;;6.63;;
68089;SDS011;54880;50.986;6.990;2022-11-15T03:06:58;12.20;;;5.80;;
68089;SDS011;54880;50.986;6.990;2022-11-15T03:09:52;12.97;;;5.90;;
68089;SDS011;54880;50.986;6.990;2022-11-15T03:12:43;14.80;;;6.60;;
68089;SDS011;54880;50.986;6.990;2022-11-15T03:15:37;10.55;;;5.78;;
68089;SDS011;54880;50.986;6.990;2022-11-15T03:18:23;15.05;;;6.30;;
68089;SDS011;54880;50.986;6.990;2022-11-15T03:21:11;15.07;;;6.30;;
68089;SDS011;54880;50.986;6.990;2022-11-15T03:23:55;11.83;;;5.97;;
68089;SDS011;54880;50.986;6.990;2022-11-15T03:26:42;13.77;;;6.32;;
68089;SDS011;54880;50.986;6.990;2022-11-15T03:29:28;12.95;;;7.07;;
68089;SDS011;54880;50.986;6.990;2022-11-15T03:32:14;10.73;;;5.63;;
68089;SDS011;54880;50.986;6.990;2022-11-15T03:37:49;12.83;;;5.90;;
68089;SDS011;54880;50.986;6.990;2022-11-15T03:41:19;10.77;;;5.45;;
68089;SDS011;54880;50.986;6.990;2022-11-15T03:43:59;10.20;;;5.40;;
68089;SDS011;54880;50.986;6.990;2022-11-15T03:46:48;10.77;;;5.80;;
68089;SDS011;54880;50.986;6.990;2022-11-15T03:49:38;11.02;;;5.47;;
68089;SDS011;54880;50.986;6.990;2022-11-15T03:52:23;12.83;;;5.23;;
68089;SDS011;54880;50.986;6.990;2022-11-15T03:55:08;11.50;;;5.55;;
68089;SDS011;54880;50.986;6.990;2022-11-15T03:57:53;10.88;;;5.78;;
68089;SDS011;54880;50.986;6.990;2022-11-15T04:00:38;14.30;;;6.13;;
68089;SDS011;54880;50.986;6.990;2022-11-15T04:03:22;14.57;;;5.47;;
68089;SDS011;54880;50.986;6.990;2022-11-15T04:06:06;12.47;;;5.30;;
68089;SDS011;54880;50.986;6.990;2022-11-15T04:08:50;11.02;;;5.28;;
68089;SDS011;54880;50.986;6.990;2022-11-15T04:11:34;11.02;;;5.35;;
68089;SDS011;54880;50.986;6.990;2022-11-15T04:14:18;11.02;;;5.05;;
68089;SDS011;54880;50.986;6.990;2022-11-15T04:17:02;12.43;;;5.63;;
68089;SDS011;54880;50.986;6.990;2022-11-15T04:19:46;9.63;;;5.13;;
68089;SDS011;54880;50.986;6.990;2022-11-15T04:22:51;10.98;;;5.90;;
68089;SDS011;54880;50.986;6.990;2022-11-15T04:25:55;11.30;;;5.47;;
68089;SDS011;54880;50.986;6.990;2022-11-15T04:28:39;10.77;;;5.60;;
68089;SDS011;54880;50.986;6.990;2022-11-15T04:31:42;15.32;;;5.25;;
68089;SDS011;54880;50.986;6.990;2022-11-15T04:34:26;11.03;;;5.93;;
68089;SDS011;54880;50.986;6.990;2022-11-15T04:37:10;11.30;;;5.30;;
68089;SDS011;54880;50.986;6.990;2022-11-15T04:39:58;11.68;;;5.95;;
68089;SDS011;54880;50.986;6.990;2022-11-15T04:42:42;11.57;;;6.28;;
68089;SDS011;54880;50.986;6.990;2022-11-15T04:45:26;10.40;;;6.05;;
68089;SDS011;54880;50.986;6.990;2022-11-15T04:48:10;9.63;;;5.27;;
68089;SDS011;54880;50.986;6.990;2022-11-15T04:50:54;11.50;;;6.07;;
68089;SDS011;54880;50.986;6.990;2022-11-15T04:53:38;11.77;;;5.70;;
68089;SDS011;54880;50.986;6.990;2022-11-15T04:56:22;10.57;;;5.53;;
68089;SDS011;54880;50.986;6.990;2022-11-15T04:59:06;10.82;;;5.50;;
68089;SDS011;54880;50.986;6.990;2022-11-15T05:01:50;10.17;;;5.47;;
68089;SDS011;54880;50.986;6.990;2022-11-15T05:04:34;9.90;;;5.55;;
68089;SDS011;54880;50.986;6.990;2022-11-15T05:07:18;10.18;;;5.80;;
68089;SDS011;54880;50.986;6.990;2022-11-15T05:10:02;12.10;;;5.95;;
68089;SDS011;54880;50.986;6.990;2022-11-15T05:12:46;10.18;;;5.00;;
68089;SDS011;54880;50.986;6.990;2022-11-15T05:15:30;10.63;;;5.23;;
68089;SDS011;54880;50.986;6.990;2022-11-15T05:18:14;11.18;;;5.93;;
68089;SDS011;54880;50.986;6.990;2022-11-15T05:21:08;10.82;;;5.10;;
68089;SDS011;54880;50.986;6.990;2022-11-15T05:23:52;11.35;;;5.45;;
68089;SDS011;54880;50.986;6.990;2022-11-15T05:26:36;10.50;;;5.60;;
68089;SDS011;54880;50.986;6.990;2022-11-15T05:29:20;10.00;;;5.30;;
68089;SDS011;54880;50.986;6.990;2022-11-15T05:32:05;10.02;;;4.68;;
68089;SDS011;54880;50.986;6.990;2022-11-15T05:34:49;10.25;;;4.80;;
68089;SDS011;54880;50.986;6.990;2022-11-15T05:37:33;9.27;;;4.65;;
68089;SDS011;54880;50.986;6.990;2022-11-15T05:40:17;9.82;;;4.38;;
68089;SDS011;54880;50.986;6.990;2022-11-15T05:43:01;9.27;;;4.80;;
68089;SDS011;54880;50.986;6.990;2022-11-15T05:45:46;9.50;;;4.63;;
68089;SDS011;54880;50.986;6.990;2022-11-15T05:48:30;12.00;;;5.90;;
68089;SDS011;54880;50.986;6.990;2022-11-15T05:51:14;9.57;;;4.80;;
68089;SDS011;54880;50.986;6.990;2022-11-15T05:53:59;11.32;;;4.80;;
68089;SDS011;54880;50.986;6.990;2022-11-15T05:56:43;10.30;;;4.20;;
68089;SDS011;54880;50.986;6.990;2022-11-15T05:59:28;11.30;;;4.90;;
68089;SDS011;54880;50.986;6.990;2022-11-15T06:02:12;10.48;;;4.82;;
68089;SDS011;54880;50.986;6.990;2022-11-15T06:04:56;7.85;;;4.13;;
68089;SDS011;54880;50.986;6.990;2022-11-15T06:07:40;10.20;;;4.97;;
68089;SDS011;54880;50.986;6.990;2022-11-15T06:10:24;8.97;;;4.70;;
68089;SDS011;54880;50.986;6.990;2022-11-15T06:13:08;9.75;;;4.30;;
68089;SDS011;54880;50.986;6.990;2022-11-15T06:15:54;8.05;;;4.35;;
68089;SDS011;54880;50.986;6.990;2022-11-15T06:18:39;8.98;;;4.05;;
68089;SDS011;54880;50.986;6.990;2022-11-15T06:21:23;8.52;;;3.90;;
68089;SDS011;54880;50.986;6.990;2022-11-15T06:24:07;9.77;;;4.60;;
68089;SDS011;54880;50.986;6.990;2022-11-15T06:26:50;8.45;;;4.13;;
68089;SDS011;54880;50.986;6.990;2022-11-15T06:29:34;8.52;;;4.20;;
68089;SDS011;54880;50.986;6.990;2022-11-15T06:32:18;10.45;;;4.15;;
68089;SDS011;54880;50.986;6.990;2022-11-15T06:35:03;9.95;;;4.60;;
68089;SDS011;54880;50.986;6.990;2022-11-15T06:37:46;8.67;;;3.83;;
68089;SDS011;54880;50.986;6.990;2022-11-15T06:40:32;8.32;;;3.95;;
68089;SDS011;54880;50.986;6.990;2022-11-15T06:43:16;8.43;;;4.20;;
68089;SDS011;54880;50.986;6.990;2022-11-15T06:46:00;9.68;;;4.32;;
68089;SDS011;54880;50.986;6.990;2022-11-15T06:48:44;9.07;;;3.63;;
68089;SDS011;54880;50.986;6.990;2022-11-15T06:51:28;8.60;;;3.90;;
68089;SDS011;54880;50.986;6.990;2022-11-15T06:54:12;8.77;;;3.80;;
68089;SDS011;54880;50.986;6.990;2022-11-15T06:56:56;7.82;;;3.78;;
68089;SDS011;54880;50.986;6.990;2022-11-15T06:59:40;8.80;;;3.90;;
68089;SDS011;54880;50.986;6.990;2022-11-15T07:02:24;8.20;;;3.70;;
68089;SDS011;54880;50.986;6.990;2022-11-15T07:05:08;8.33;;;3.57;;
68089;SDS011;54880;50.986;6.990;2022-11-15T07:07:52;9.20;;;3.67;;
68089;SDS011;54880;50.986;6.990;2022-11-15T07:10:37;8.32;;;3.55;;
68089;SDS011;54880;50.986;6.990;2022-11-15T07:13:23;9.20;;;3.40;;
68089;SDS011;54880;50.986;6.990;2022-11-15T07:16:08;8.15;;;3.13;;
68089;SDS011;54880;50.986;6.990;2022-11-15T07:18:53;10.07;;;3.60;;
68089;SDS011;54880;50.986;6.990;2022-11-15T07:21:37;8.25;;;3.42;;
68089;SDS011;54880;50.986;6.990;2022-11-15T07:24:20;7.90;;;3.47;;
68089;SDS011;54880;50.986;6.990;2022-11-15T07:27:04;9.23;;;3.13;;
68089;SDS011;54880;50.986;6.990;2022-11-15T07:29:48;9.50;;;3.63;;
68089;SDS011;54880;50.986;6.990;2022-11-15T07:32:32;8.50;;;3.67;;
68089;SDS011;54880;50.986;6.990;2022-11-15T07:35:16;7.93;;;3.47;;
68089;SDS011;54880;50.986;6.990;2022-11-15T07:38:01;7.53;;;3.30;;
68089;SDS011;54880;50.986;6.990;2022-11-15T07:40:45;8.77;;;3.42;;
68089;SDS011;54880;50.986;6.990;2022-11-15T07:43:29;7.90;;;3.58;;
68089;SDS011;54880;50.986;6.990;2022-11-15T07:46:16;8.37;;;3.07;;
68089;SDS011;54880;50.986;6.990;2022-11-15T07:49:00;9.27;;;3.67;;
68089;SDS011;54880;50.986;6.990;2022-11-15T07:51:43;7.10;;;3.30;;
68089;SDS011;54880;50.986;6.990;2022-11-15T07:54:27;9.25;;;3.42;;
68089;SDS011;54880;50.986;6.990;2022-11-15T07:57:11;8.15;;;3.60;;
68089;SDS011;54880;50.986;6.990;2022-11-15T07:59:55;10.07;;;3.60;;
68089;SDS011;54880;50.986;6.990;2022-11-15T08:02:39;8.48;;;3.60;;
68089;SDS011;54880;50.986;6.990;2022-11-15T08:05:23;9.65;;;3.55;;
68089;SDS011;54880;50.986;6.990;2022-11-15T08:08:08;9.32;;;3.15;;
68089;SDS011;54880;50.986;6.990;2022-11-15T08:10:52;8.40;;;3.08;;
68089;SDS011;54880;50.986;6.990;2022-11-15T08:13:36;6.97;;;2.87;;
68089;SDS011;54880;50.986;6.990;2022-11-15T08:16:20;7.75;;;3.17;;
68089;SDS011;54880;50.986;6.990;2022-11-15T08:19:04;7.25;;;3.05;;
68089;SDS011;54880;50.986;6.990;2022-11-15T08:21:48;10.35;;;4.18;;
68089;SDS011;54880;50.986;6.990;2022-11-15T08:24:32;9.07;;;3.22;;
68089;SDS011;54880;50.986;6.990;2022-11-15T08:27:16;7.53;;;3.03;;
68089;SDS011;54880;50.986;6.990;2022-11-15T08:30:00;6.95;;;3.10;;
68089;SDS011;54880;50.986;6.990;2022-11-15T08:32:43;6.13;;;2.10;;
68089;SDS011;54880;50.986;6.990;2022-11-15T08:35:27;8.30;;;2.58;;
68089;SDS011;54880;50.986;6.990;2022-11-15T08:38:11;5.85;;;2.28;;
68089;SDS011;54880;50.986;6.990;2022-11-15T08:40:59;6.20;;;2.27;;
68089;SDS011;54880;50.986;6.990;2022-11-15T08:43:43;6.53;;;2.20;;
68089;SDS011;54880;50.986;6.990;2022-11-15T08:46:28;5.75;;;2.10;;
68089;SDS011;54880;50.986;6.990;2022-11-15T08:49:12;6.50;;;2.33;;
68089;SDS011;54880;50.986;6.990;2022-11-15T08:51:56;5.55;;;2.05;;
68089;SDS011;54880;50.986;6.990;2022-11-15T08:54:40;5.67;;;1.93;;
68089;SDS011;54880;50.986;6.990;2022-11-15T08:57:24;5.32;;;2.00;;
68089;SDS011;54880;50.986;6.990;2022-11-15T09:00:08;6.07;;;2.00;;
68089;SDS011;54880;50.986;6.990;2022-11-15T09:02:52;6.35;;;2.10;;
68089;SDS011;54880;50.986;6.990;2022-11-15T09:05:36;6.85;;;2.10;;
68089;SDS011;54880;50.986;6.990;2022-11-15T09:08:21;6.30;;;2.10;;
68089;SDS011;54880;50.986;6.990;2022-11-15T09:11:06;7.38;;;2.40;;
68089;SDS011;54880;50.986;6.990;2022-11-15T09:13:49;5.68;;;2.05;;
68089;SDS011;54880;50.986;6.990;2022-11-15T09:16:33;6.38;;;2.08;;
68089;SDS011;54880;50.986;6.990;2022-11-15T09:19:17;7.18;;;2.10;;
68089;SDS011;54880;50.986;6.990;2022-11-15T09:22:02;5.63;;;1.93;;
68089;SDS011;54880;50.986;6.990;2022-11-15T09:24:48;5.90;;;1.70;;
68089;SDS011;54880;50.986;6.990;2022-11-15T09:27:32;5.78;;;1.90;;
68089;SDS011;54880;50.986;6.990;2022-11-15T09:30:16;6.60;;;1.80;;
68089;SDS011;54880;50.986;6.990;2022-11-15T09:33:05;6.45;;;1.83;;
68089;SDS011;54880;50.986;6.990;2022-11-15T09:35:49;6.10;;;2.07;;
68089;SDS011;54880;50.986;6.990;2022-11-15T09:38:34;7.00;;;2.00;;
68089;SDS011;54880;50.986;6.990;2022-11-15T09:41:28;7.05;;;1.65;;
68089;SDS011;54880;50.986;6.990;2022-11-15T09:47:21;6.32;;;1.70;;
68089;SDS011;54880;50.986;6.990;2022-11-15T09:50:21;8.00;;;1.83;;
68089;SDS011;54880;50.986;6.990;2022-11-15T09:52:51;5.93;;;1.40;;
68089;SDS011;54880;50.986;6.990;2022-11-15T09:55:28;6.23;;;1.40;;
68089;SDS011;54880;50.986;6.990;2022-11-15T09:57:55;5.80;;;1.40;;
68089;SDS011;54880;50.986;6.990;2022-11-15T10:00:31;5.63;;;1.33;;
68089;SDS011;54880;50.986;6.990;2022-11-15T10:03:14;6.70;;;1.60;;
68089;SDS011;54880;50.986;6.990;2022-11-15T10:05:42;6.17;;;1.60;;
68089;SDS011;54880;50.986;6.990;2022-11-15T10:10:46;5.07;;;1.10;;
68089;SDS011;54880;50.986;6.990;2022-11-15T10:13:13;5.18;;;1.30;;
68089;SDS011;54880;50.986;6.990;2022-11-15T10:15:42;4.63;;;1.13;;
68089;SDS011;54880;50.986;6.990;2022-11-15T10:20:46;6.90;;;1.30;;
68089;SDS011;54880;50.986;6.990;2022-11-15T10:23:13;5.22;;;1.20;;
68089;SDS011;54880;50.986;6.990;2022-11-15T10:25:39;6.03;;;1.20;;
68089;SDS011;54880;50.986;6.990;2022-11-15T10:30:40;5.22;;;0.98;;
68089;SDS011;54880;50.986;6.990;2022-11-15T10:33:47;4.83;;;1.10;;
68089;SDS011;54880;50.986;6.990;2022-11-15T10:41:22;4.22;;;1.23;;
68089;SDS011;54880;50.986;6.990;2022-11-15T10:46:31;6.20;;;1.10;;
68089;SDS011;54880;50.986;6.990;2022-11-15T10:52:02;5.13;;;1.13;;
68089;SDS011;54880;50.986;6.990;2022-11-15T10:54:30;6.53;;;1.20;;
68089;SDS011;54880;50.986;6.990;2022-11-15T10:56:59;4.93;;;1.13;;
68089;SDS011;54880;50.986;6.990;2022-11-15T10:59:35;4.13;;;0.80;;
68089;SDS011;54880;50.986;6.990;2022-11-15T11:02:01;6.07;;;0.80;;
68089;SDS011;54880;50.986;6.990;2022-11-15T11:04:26;4.70;;;1.27;;
68089;SDS011;54880;50.986;6.990;2022-11-15T11:06:53;5.00;;;1.03;;
68089;SDS011;54880;50.986;6.990;2022-11-15T11:11:47;5.65;;;0.80;;
68089;SDS011;54880;50.986;6.990;2022-11-15T11:19:54;3.13;;;0.75;;
68089;SDS011;54880;50.986;6.990;2022-11-15T11:27:42;3.92;;;1.00;;
68089;SDS011;54880;50.986;6.990;2022-11-15T11:32:38;5.30;;;0.90;;
68089;SDS011;54880;50.986;6.990;2022-11-15T11:37:49;6.23;;;0.90;;
68089;SDS011;54880;50.986;6.990;2022-11-15T11:48:11;5.03;;;1.10;;
68089;SDS011;54880;50.986;6.990;2022-11-15T11:50:37;5.15;;;0.90;;
68089;SDS011;54880;50.986;6.990;2022-11-15T11:53:05;5.20;;;0.80;;
68089;SDS011;54880;50.986;6.990;2022-11-15T12:00:43;4.88;;;1.00;;
68089;SDS011;54880;50.986;6.990;2022-11-15T12:04:11;3.87;;;1.00;;
68089;SDS011;54880;50.986;6.990;2022-11-15T12:06:09;5.90;;;1.00;;
68089;SDS011;54880;50.986;6.990;2022-11-15T12:08:41;8.55;;;1.08;;
68089;SDS011;54880;50.986;6.990;2022-11-15T12:11:14;6.75;;;1.05;;
68089;SDS011;54880;50.986;6.990;2022-11-15T12:13:41;11.23;;;4.03;;
68089;SDS011;54880;50.986;6.990;2022-11-15T12:16:23;6.30;;;1.30;;
68089;SDS011;54880;50.986;6.990;2022-11-15T12:18:51;5.85;;;1.02;;
68089;SDS011;54880;50.986;6.990;2022-11-15T12:23:47;7.87;;;1.10;;
68089;SDS011;54880;50.986;6.990;2022-11-15T12:26:24;4.13;;;1.05;;
68089;SDS011;54880;50.986;6.990;2022-11-15T12:31:42;6.13;;;1.20;;
68089;SDS011;54880;50.986;6.990;2022-11-15T12:36:47;5.03;;;1.00;;
68089;SDS011;54880;50.986;6.990;2022-11-15T12:39:13;4.72;;;1.20;;
68089;SDS011;54880;50.986;6.990;2022-11-15T12:41:39;4.45;;;1.10;;
68089;SDS011;54880;50.986;6.990;2022-11-15T12:44:09;11.07;;;1.20;;
68089;SDS011;54880;50.986;6.990;2022-11-15T12:49:10;7.40;;;1.10;;
68089;SDS011;54880;50.986;6.990;2022-11-15T13:02:18;5.43;;;1.20;;
68089;SDS011;54880;50.986;6.990;2022-11-15T13:04:43;6.05;;;1.10;;
68089;SDS011;54880;50.986;6.990;2022-11-15T13:07:09;5.40;;;1.13;;
68089;SDS011;54880;50.986;6.990;2022-11-15T13:09:54;4.97;;;1.30;;
68089;SDS011;54880;50.986;6.990;2022-11-15T13:19:50;5.85;;;1.33;;
68089;SDS011;54880;50.986;6.990;2022-11-15T13:22:17;10.10;;;1.73;;
68089;SDS011;54880;50.986;6.990;2022-11-15T13:25:02;8.77;;;1.50;;
68089;SDS011;54880;50.986;6.990;2022-11-15T13:27:27;5.90;;;1.48;;
68089;SDS011;54880;50.986;6.990;2022-11-15T13:29:53;6.78;;;1.60;;
68089;SDS011;54880;50.986;6.990;2022-11-15T13:32:18;8.73;;;1.33;;
68089;SDS011;54880;50.986;6.990;2022-11-15T13:34:45;7.73;;;1.60;;
68089;SDS011;54880;50.986;6.990;2022-11-15T13:39:46;6.28;;;1.98;;
68089;SDS011;54880;50.986;6.990;2022-11-15T13:42:15;6.97;;;1.70;;
68089;SDS011;54880;50.986;6.990;2022-11-15T13:44:41;5.85;;;1.90;;
68089;SDS011;54880;50.986;6.990;2022-11-15T13:47:19;5.20;;;1.60;;
68089;SDS011;54880;50.986;6.990;2022-11-15T13:49:44;7.53;;;2.27;;
68089;SDS011;54880;50.986;6.990;2022-11-15T13:52:13;7.03;;;2.40;;
68089;SDS011;54880;50.986;6.990;2022-11-15T13:54:43;8.38;;;2.10;;
68089;SDS011;54880;50.986;6.990;2022-11-15T13:59:35;6.83;;;2.20;;
68089;SDS011;54880;50.986;6.990;2022-11-15T14:02:02;9.45;;;2.00;;
68089;SDS011;54880;50.986;6.990;2022-11-15T14:04:29;7.30;;;2.30;;
68089;SDS011;54880;50.986;6.990;2022-11-15T14:06:56;6.13;;;2.15;;
68089;SDS011;54880;50.986;6.990;2022-11-15T14:09:40;6.65;;;2.50;;
68089;SDS011;54880;50.986;6.990;2022-11-15T14:14:46;6.68;;;2.35;;
68089;SDS011;54880;50.986;6.990;2022-11-15T14:17:21;5.87;;;1.97;;
68089;SDS011;54880;50.986;6.990;2022-11-15T14:19:57;11.82;;;2.47;;
68089;SDS011;54880;50.986;6.990;2022-11-15T14:22:24;6.03;;;1.97;;
68089;SDS011;54880;50.986;6.990;2022-11-15T14:27:31;6.60;;;2.00;;
68089;SDS011;54880;50.986;6.990;2022-11-15T14:29:56;7.78;;;2.00;;
68089;SDS011;54880;50.986;6.990;2022-11-15T14:32:22;6.97;;;2.10;;
68089;SDS011;54880;50.986;6.990;2022-11-15T14:34:49;7.78;;;2.15;;
68089;SDS011;54880;50.986;6.990;2022-11-15T14:37:24;6.03;;;1.90;;
68089;SDS011;54880;50.986;6.990;2022-11-15T14:39:50;6.53;;;2.27;;
68089;SDS011;54880;50.986;6.990;2022-11-15T14:42:16;9.93;;;2.13;;
68089;SDS011;54880;50.986;6.990;2022-11-15T14:44:41;6.77;;;2.10;;
68089;SDS011;54880;50.986;6.990;2022-11-15T14:47:06;6.73;;;2.07;;
68089;SDS011;54880;50.986;6.990;2022-11-15T14:49:31;7.30;;;2.13;;
68089;SDS011;54880;50.986;6.990;2022-11-15T14:51:57;7.30;;;2.07;;
68089;SDS011;54880;50.986;6.990;2022-11-15T14:54:22;6.37;;;1.93;;
68089;SDS011;54880;50.986;6.990;2022-11-15T14:56:47;7.47;;;2.40;;
68089;SDS011;54880;50.986;6.990;2022-11-15T14:59:12;5.70;;;2.00;;
68089;SDS011;54880;50.986;6.990;2022-11-15T15:01:37;8.03;;;2.33;;
68089;SDS011;54880;50.986;6.990;2022-11-15T15:04:03;8.50;;;2.10;;
68089;SDS011;54880;50.986;6.990;2022-11-15T15:06:28;6.07;;;2.10;;
68089;SDS011;54880;50.986;6.990;2022-11-15T15:08:55;5.82;;;2.00;;
68089;SDS011;54880;50.986;6.990;2022-11-15T15:11:21;6.83;;;2.10;;
68089;SDS011;54880;50.986;6.990;2022-11-15T15:13:47;6.78;;;2.00;;
68089;SDS011;54880;50.986;6.990;2022-11-15T15:16:13;9.33;;;2.60;;
68089;SDS011;54880;50.986;6.990;2022-11-15T15:18:38;7.13;;;2.10;;
68089;SDS011;54880;50.986;6.990;2022-11-15T15:21:04;5.43;;;1.97;;
68089;SDS011;54880;50.986;6.990;2022-11-15T15:23:35;5.75;;;1.83;;
68089;SDS011;54880;50.986;6.990;2022-11-15T15:26:01;8.03;;;2.53;;
68089;SDS011;54880;50.986;6.990;2022-11-15T15:28:26;6.67;;;2.07;;
68089;SDS011;54880;50.986;6.990;2022-11-15T15:30:51;6.67;;;2.03;;
68089;SDS011;54880;50.986;6.990;2022-11-15T15:33:17;6.97;;;1.85;;
68089;SDS011;54880;50.986;6.990;2022-11-15T15:35:42;7.40;;;2.10;;
68089;SDS011;54880;50.986;6.990;2022-11-15T15:38:10;7.70;;;1.90;;
68089;SDS011;54880;50.986;6.990;2022-11-15T15:40:36;7.43;;;1.90;;
68089;SDS011;54880;50.986;6.990;2022-11-15T15:43:01;7.80;;;2.40;;
68089;SDS011;54880;50.986;6.990;2022-11-15T15:45:26;7.82;;;2.15;;
68089;SDS011;54880;50.986;6.990;2022-11-15T15:47:52;6.17;;;1.80;;
68089;SDS011;54880;50.986;6.990;2022-11-15T15:52:47;6.47;;;2.23;;
68089;SDS011;54880;50.986;6.990;2022-11-15T15:55:12;5.45;;;1.58;;
68089;SDS011;54880;50.986;6.990;2022-11-15T15:57:37;10.80;;;2.33;;
68089;SDS011;54880;50.986;6.990;2022-11-15T16:00:03;5.93;;;2.00;;
68089;SDS011;54880;50.986;6.990;2022-11-15T16:02:37;6.03;;;1.80;;
68089;SDS011;54880;50.986;6.990;2022-11-15T16:05:02;4.83;;;1.57;;
68089;SDS011;54880;50.986;6.990;2022-11-15T16:07:27;5.70;;;1.80;;
68089;SDS011;54880;50.986;6.990;2022-11-15T16:09:54;7.07;;;1.92;;
68089;SDS011;54880;50.986;6.990;2022-11-15T16:12:35;7.27;;;1.80;;
68089;SDS011;54880;50.986;6.990;2022-11-15T16:15:00;5.43;;;1.90;;
68089;SDS011;54880;50.986;6.990;2022-11-15T16:17:30;6.65;;;1.85;;
68089;SDS011;54880;50.986;6.990;2022-11-15T16:19:56;5.88;;;1.90;;
68089;SDS011;54880;50.986;6.990;2022-11-15T16:22:22;6.20;;;2.17;;
68089;SDS011;54880;50.986;6.990;2022-11-15T16:24:47;8.70;;;2.00;;
68089;SDS011;54880;50.986;6.990;2022-11-15T16:27:16;6.23;;;2.03;;
68089;SDS011;54880;50.986;6.990;2022-11-15T16:29:42;5.87;;;2.03;;
68089;SDS011;54880;50.986;6.990;2022-11-15T16:32:07;5.50;;;2.05;;
68089;SDS011;54880;50.986;6.990;2022-11-15T16:34:32;6.40;;;2.20;;
68089;SDS011;54880;50.986;6.990;2022-11-15T16:36:57;5.87;;;1.90;;
68089;SDS011;54880;50.986;6.990;2022-11-15T16:39:23;5.90;;;2.10;;
68089;SDS011;54880;50.986;6.990;2022-11-15T16:41:48;5.73;;;2.00;;
68089;SDS011;54880;50.986;6.990;2022-11-15T16:44:13;5.57;;;1.80;;
68089;SDS011;54880;50.986;6.990;2022-11-15T16:46:40;7.53;;;1.80;;
68089;SDS011;54880;50.986;6.990;2022-11-15T16:49:10;7.20;;;2.25;;
68089;SDS011;54880;50.986;6.990;2022-11-15T16:51:37;7.63;;;2.20;;
68089;SDS011;54880;50.986;6.990;2022-11-15T16:54:03;7.95;;;1.92;;
68089;SDS011;54880;50.986;6.990;2022-11-15T16:56:29;6.73;;;2.10;;
68089;SDS011;54880;50.986;6.990;2022-11-15T16:58:55;8.30;;;1.90;;
68089;SDS011;54880;50.986;6.990;2022-11-15T17:01:23;6.82;;;1.83;;
68089;SDS011;54880;50.986;6.990;2022-11-15T17:03:49;6.82;;;2.00;;
68089;SDS011;54880;50.986;6.990;2022-11-15T17:06:14;7.07;;;2.17;;
68089;SDS011;54880;50.986;6.990;2022-11-15T17:08:39;6.17;;;2.13;;
68089;SDS011;54880;50.986;6.990;2022-11-15T17:11:05;5.03;;;1.80;;
68089;SDS011;54880;50.986;6.990;2022-11-15T17:13:30;6.82;;;2.30;;
68089;SDS011;54880;50.986;6.990;2022-11-15T17:16:04;5.87;;;2.17;;
68089;SDS011;54880;50.986;6.990;2022-11-15T17:18:30;6.03;;;1.85;;
68089;SDS011;54880;50.986;6.990;2022-11-15T17:20:55;7.23;;;2.10;;
68089;SDS011;54880;50.986;6.990;2022-11-15T17:23:21;5.20;;;1.87;;
68089;SDS011;54880;50.986;6.990;2022-11-15T17:25:46;5.60;;;1.97;;
68089;SDS011;54880;50.986;6.990;2022-11-15T17:28:11;6.60;;;1.80;;
68089;SDS011;54880;50.986;6.990;2022-11-15T17:30:39;6.57;;;2.00;;
68089;SDS011;54880;50.986;6.990;2022-11-15T17:33:04;6.65;;;1.98;;
68089;SDS011;54880;50.986;6.990;2022-11-15T17:35:29;6.27;;;2.37;;
68089;SDS011;54880;50.986;6.990;2022-11-15T17:37:55;5.87;;;2.20;;
68089;SDS011;54880;50.986;6.990;2022-11-15T17:40:20;6.27;;;2.43;;
68089;SDS011;54880;50.986;6.990;2022-11-15T17:42:45;6.27;;;2.27;;
68089;SDS011;54880;50.986;6.990;2022-11-15T17:45:12;6.25;;;2.33;;
68089;SDS011;54880;50.986;6.990;2022-11-15T17:47:37;7.00;;;2.37;;
68089;SDS011;54880;50.986;6.990;2022-11-15T17:50:02;8.13;;;2.40;;
68089;SDS011;54880;50.986;6.990;2022-11-15T17:52:28;7.67;;;2.37;;